Terminal Aerodrome Forecast
Issued by NWS Omaha/Valley, NE

Home | Current Version | Previous Version | Text Only | Print | Product List | Glossary On
Versions: 1 2 3 4 5 6 7 8 9 10 11 12 13 14 15 16 17 18 19 20 21 22 23 24 25 26 27 28 29 30 31 32 33 34 35 36 37 38 39 40 41
000
FTUS43 KOAX 192326
TAFLNK
TAF
KLNK 192326Z 2000/2024 19013KT P6SM SCT250
     FM200200 19011KT P6SM SCT030 SCT100
     FM200700 22009KT P6SM VCSH SCT030 BKN080
      TEMPO 2007/2010 4SM TSRA BKN030CB
     FM201000 28007KT P6SM -SHRA BKN080
      TEMPO 2010/2014 4SM TSRA BKN030CB
     FM201500 32010KT P6SM SCT030 BKN250=

USA.gov is the U.S. government's official web portal to all federal, state and local government web resources and services.